sensor_id;sensor_type;location;lat;lon;timestamp;P1;durP1;ratioP1;P2;durP2;ratioP2
43807;SDS011;29438;50.664;10.098;2022-12-13T00:01:21;1.30;;;0.75;;
43807;SDS011;29438;50.664;10.098;2022-12-13T00:03:47;1.50;;;0.90;;
43807;SDS011;29438;50.664;10.098;2022-12-13T00:06:13;1.58;;;0.82;;
43807;SDS011;29438;50.664;10.098;2022-12-13T00:08:39;3.08;;;1.35;;
43807;SDS011;29438;50.664;10.098;2022-12-13T00:11:06;4.15;;;1.58;;
43807;SDS011;29438;50.664;10.098;2022-12-13T00:13:34;3.10;;;1.40;;
43807;SDS011;29438;50.664;10.098;2022-12-13T00:16:01;2.17;;;0.70;;
43807;SDS011;29438;50.664;10.098;2022-12-13T00:18:29;6.13;;;2.08;;
43807;SDS011;29438;50.664;10.098;2022-12-13T00:20:55;2.38;;;1.02;;
43807;SDS011;29438;50.664;10.098;2022-12-13T00:23:20;2.42;;;1.42;;
43807;SDS011;29438;50.664;10.098;2022-12-13T00:25:46;3.03;;;1.38;;
43807;SDS011;29438;50.664;10.098;2022-12-13T00:28:12;1.92;;;1.48;;
43807;SDS011;29438;50.664;10.098;2022-12-13T00:30:38;4.55;;;1.58;;
43807;SDS011;29438;50.664;10.098;2022-12-13T00:33:04;3.63;;;1.95;;
43807;SDS011;29438;50.664;10.098;2022-12-13T00:35:30;3.78;;;1.13;;
43807;SDS011;29438;50.664;10.098;2022-12-13T00:37:56;5.03;;;2.20;;
43807;SDS011;29438;50.664;10.098;2022-12-13T00:40:22;3.97;;;1.10;;
43807;SDS011;29438;50.664;10.098;2022-12-13T00:42:47;2.30;;;1.52;;
43807;SDS011;29438;50.664;10.098;2022-12-13T00:45:13;3.55;;;1.67;;
43807;SDS011;29438;50.664;10.098;2022-12-13T00:47:39;4.80;;;1.88;;
43807;SDS011;29438;50.664;10.098;2022-12-13T00:50:05;1.05;;;0.73;;
43807;SDS011;29438;50.664;10.098;2022-12-13T00:52:32;4.00;;;2.00;;
43807;SDS011;29438;50.664;10.098;2022-12-13T00:54:58;3.40;;;1.58;;
43807;SDS011;29438;50.664;10.098;2022-12-13T00:57:23;3.47;;;1.55;;
43807;SDS011;29438;50.664;10.098;2022-12-13T00:59:49;3.55;;;2.10;;
43807;SDS011;29438;50.664;10.098;2022-12-13T01:02:15;2.20;;;1.52;;
43807;SDS011;29438;50.664;10.098;2022-12-13T01:04:40;6.80;;;2.22;;
43807;SDS011;29438;50.664;10.098;2022-12-13T01:07:06;5.13;;;2.38;;
43807;SDS011;29438;50.664;10.098;2022-12-13T01:09:32;9.57;;;2.45;;
43807;SDS011;29438;50.664;10.098;2022-12-13T01:11:59;3.22;;;2.05;;
43807;SDS011;29438;50.664;10.098;2022-12-13T01:14:29;7.35;;;2.22;;
43807;SDS011;29438;50.664;10.098;2022-12-13T01:16:58;7.85;;;2.20;;
43807;SDS011;29438;50.664;10.098;2022-12-13T01:19:24;3.60;;;1.90;;
43807;SDS011;29438;50.664;10.098;2022-12-13T01:21:59;3.53;;;1.98;;
43807;SDS011;29438;50.664;10.098;2022-12-13T01:24:27;14.35;;;1.77;;
43807;SDS011;29438;50.664;10.098;2022-12-13T01:26:53;3.60;;;1.20;;
43807;SDS011;29438;50.664;10.098;2022-12-13T01:29:19;3.70;;;1.08;;
43807;SDS011;29438;50.664;10.098;2022-12-13T01:31:46;8.77;;;4.25;;
43807;SDS011;29438;50.664;10.098;2022-12-13T01:34:12;15.95;;;4.32;;
43807;SDS011;29438;50.664;10.098;2022-12-13T01:36:40;9.98;;;1.77;;
43807;SDS011;29438;50.664;10.098;2022-12-13T01:39:08;9.10;;;2.75;;
43807;SDS011;29438;50.664;10.098;2022-12-13T01:41:34;6.57;;;1.65;;
43807;SDS011;29438;50.664;10.098;2022-12-13T01:44:01;5.13;;;1.85;;
43807;SDS011;29438;50.664;10.098;2022-12-13T01:46:51;4.20;;;1.88;;
43807;SDS011;29438;50.664;10.098;2022-12-13T01:49:16;5.45;;;1.08;;
43807;SDS011;29438;50.664;10.098;2022-12-13T01:54:16;9.68;;;2.33;;
43807;SDS011;29438;50.664;10.098;2022-12-13T01:56:48;3.13;;;1.27;;
43807;SDS011;29438;50.664;10.098;2022-12-13T01:59:19;5.35;;;1.85;;
43807;SDS011;29438;50.664;10.098;2022-12-13T02:01:46;5.35;;;2.15;;
43807;SDS011;29438;50.664;10.098;2022-12-13T02:04:16;5.15;;;4.13;;
43807;SDS011;29438;50.664;10.098;2022-12-13T02:09:13;3.95;;;1.42;;
43807;SDS011;29438;50.664;10.098;2022-12-13T02:11:40;8.93;;;2.55;;
43807;SDS011;29438;50.664;10.098;2022-12-13T02:14:07;3.17;;;2.67;;
43807;SDS011;29438;50.664;10.098;2022-12-13T02:16:50;5.88;;;2.63;;
43807;SDS011;29438;50.664;10.098;2022-12-13T02:30:36;4.28;;;1.55;;
43807;SDS011;29438;50.664;10.098;2022-12-13T02:33:15;2.47;;;2.00;;
43807;SDS011;29438;50.664;10.098;2022-12-13T02:36:01;2.83;;;1.13;;
43807;SDS011;29438;50.664;10.098;2022-12-13T02:38:35;4.70;;;2.25;;
43807;SDS011;29438;50.664;10.098;2022-12-13T02:43:47;2.78;;;1.35;;
43807;SDS011;29438;50.664;10.098;2022-12-13T02:46:34;10.38;;;1.73;;
43807;SDS011;29438;50.664;10.098;2022-12-13T02:49:05;4.05;;;1.70;;
43807;SDS011;29438;50.664;10.098;2022-12-13T02:51:33;3.33;;;2.22;;
43807;SDS011;29438;50.664;10.098;2022-12-13T02:54:00;4.05;;;1.05;;
43807;SDS011;29438;50.664;10.098;2022-12-13T02:56:26;12.45;;;2.05;;
43807;SDS011;29438;50.664;10.098;2022-12-13T02:58:52;4.35;;;1.80;;
43807;SDS011;29438;50.664;10.098;2022-12-13T03:06:51;1.40;;;0.68;;
43807;SDS011;29438;50.664;10.098;2022-12-13T03:09:32;5.88;;;2.88;;
43807;SDS011;29438;50.664;10.098;2022-12-13T03:15:26;2.70;;;0.93;;
43807;SDS011;29438;50.664;10.098;2022-12-13T03:18:23;2.60;;;1.63;;
43807;SDS011;29438;50.664;10.098;2022-12-13T03:20:51;4.35;;;1.52;;
43807;SDS011;29438;50.664;10.098;2022-12-13T03:23:18;4.72;;;1.15;;
43807;SDS011;29438;50.664;10.098;2022-12-13T03:25:46;1.50;;;0.80;;
43807;SDS011;29438;50.664;10.098;2022-12-13T03:28:14;4.28;;;0.98;;
43807;SDS011;29438;50.664;10.098;2022-12-13T03:30:40;10.98;;;2.38;;
43807;SDS011;29438;50.664;10.098;2022-12-13T03:33:06;2.97;;;1.33;;
43807;SDS011;29438;50.664;10.098;2022-12-13T03:35:31;3.63;;;2.22;;
43807;SDS011;29438;50.664;10.098;2022-12-13T03:37:57;3.70;;;1.27;;
43807;SDS011;29438;50.664;10.098;2022-12-13T03:40:25;6.65;;;1.92;;
43807;SDS011;29438;50.664;10.098;2022-12-13T03:42:52;3.38;;;1.80;;
43807;SDS011;29438;50.664;10.098;2022-12-13T03:45:17;4.60;;;1.52;;
43807;SDS011;29438;50.664;10.098;2022-12-13T03:47:44;2.15;;;1.00;;
43807;SDS011;29438;50.664;10.098;2022-12-13T03:50:10;4.80;;;2.85;;
43807;SDS011;29438;50.664;10.098;2022-12-13T03:52:36;4.30;;;1.48;;
43807;SDS011;29438;50.664;10.098;2022-12-13T03:55:01;4.82;;;1.83;;
43807;SDS011;29438;50.664;10.098;2022-12-13T03:57:27;7.60;;;2.45;;
43807;SDS011;29438;50.664;10.098;2022-12-13T03:59:53;4.57;;;1.50;;
43807;SDS011;29438;50.664;10.098;2022-12-13T04:02:19;1.67;;;0.93;;
43807;SDS011;29438;50.664;10.098;2022-12-13T04:04:44;2.92;;;1.85;;
43807;SDS011;29438;50.664;10.098;2022-12-13T04:07:10;4.28;;;1.45;;
43807;SDS011;29438;50.664;10.098;2022-12-13T04:09:35;2.75;;;1.38;;
43807;SDS011;29438;50.664;10.098;2022-12-13T04:12:01;2.45;;;1.02;;
43807;SDS011;29438;50.664;10.098;2022-12-13T04:14:45;5.35;;;1.65;;
43807;SDS011;29438;50.664;10.098;2022-12-13T04:17:11;9.88;;;2.35;;
43807;SDS011;29438;50.664;10.098;2022-12-13T04:19:37;7.47;;;2.75;;
43807;SDS011;29438;50.664;10.098;2022-12-13T04:22:02;3.83;;;1.20;;
43807;SDS011;29438;50.664;10.098;2022-12-13T04:24:28;3.83;;;1.20;;
43807;SDS011;29438;50.664;10.098;2022-12-13T04:26:53;3.13;;;1.42;;
43807;SDS011;29438;50.664;10.098;2022-12-13T04:29:19;3.90;;;2.08;;
43807;SDS011;29438;50.664;10.098;2022-12-13T04:31:44;6.55;;;1.55;;
43807;SDS011;29438;50.664;10.098;2022-12-13T04:34:10;2.10;;;1.10;;
43807;SDS011;29438;50.664;10.098;2022-12-13T04:36:36;2.35;;;1.23;;
43807;SDS011;29438;50.664;10.098;2022-12-13T04:39:02;1.92;;;1.10;;
43807;SDS011;29438;50.664;10.098;2022-12-13T04:41:28;2.67;;;1.55;;
43807;SDS011;29438;50.664;10.098;2022-12-13T04:43:59;5.15;;;1.58;;
43807;SDS011;29438;50.664;10.098;2022-12-13T04:46:24;5.13;;;2.50;;
43807;SDS011;29438;50.664;10.098;2022-12-13T04:48:50;5.25;;;2.65;;
43807;SDS011;29438;50.664;10.098;2022-12-13T04:51:15;6.68;;;2.72;;
43807;SDS011;29438;50.664;10.098;2022-12-13T04:53:41;8.18;;;2.38;;
43807;SDS011;29438;50.664;10.098;2022-12-13T04:56:06;11.07;;;2.45;;
43807;SDS011;29438;50.664;10.098;2022-12-13T04:58:32;5.63;;;2.40;;
43807;SDS011;29438;50.664;10.098;2022-12-13T05:00:58;5.38;;;2.58;;
43807;SDS011;29438;50.664;10.098;2022-12-13T05:03:24;2.78;;;1.38;;
43807;SDS011;29438;50.664;10.098;2022-12-13T05:05:49;2.92;;;1.58;;
43807;SDS011;29438;50.664;10.098;2022-12-13T05:08:15;3.83;;;2.17;;
43807;SDS011;29438;50.664;10.098;2022-12-13T05:10:41;4.63;;;2.72;;
43807;SDS011;29438;50.664;10.098;2022-12-13T05:13:06;3.70;;;1.20;;
43807;SDS011;29438;50.664;10.098;2022-12-13T05:15:32;3.85;;;2.45;;
43807;SDS011;29438;50.664;10.098;2022-12-13T05:18:02;15.45;;;2.28;;
43807;SDS011;29438;50.664;10.098;2022-12-13T05:20:29;7.60;;;2.20;;
43807;SDS011;29438;50.664;10.098;2022-12-13T05:22:55;7.32;;;1.30;;
43807;SDS011;29438;50.664;10.098;2022-12-13T05:25:22;4.45;;;2.30;;
43807;SDS011;29438;50.664;10.098;2022-12-13T05:27:51;3.25;;;1.73;;
43807;SDS011;29438;50.664;10.098;2022-12-13T05:30:16;5.35;;;1.80;;
43807;SDS011;29438;50.664;10.098;2022-12-13T05:32:42;4.78;;;2.65;;
43807;SDS011;29438;50.664;10.098;2022-12-13T05:35:08;5.80;;;3.08;;
43807;SDS011;29438;50.664;10.098;2022-12-13T05:37:34;4.63;;;2.17;;
43807;SDS011;29438;50.664;10.098;2022-12-13T05:40:00;2.40;;;1.77;;
43807;SDS011;29438;50.664;10.098;2022-12-13T05:42:26;6.03;;;2.20;;
43807;SDS011;29438;50.664;10.098;2022-12-13T05:44:51;10.02;;;2.67;;
43807;SDS011;29438;50.664;10.098;2022-12-13T05:47:17;5.25;;;2.00;;
43807;SDS011;29438;50.664;10.098;2022-12-13T05:49:43;7.63;;;2.53;;
43807;SDS011;29438;50.664;10.098;2022-12-13T05:52:16;5.40;;;2.70;;
43807;SDS011;29438;50.664;10.098;2022-12-13T05:57:07;4.97;;;1.80;;
43807;SDS011;29438;50.664;10.098;2022-12-13T05:59:33;6.75;;;3.00;;
43807;SDS011;29438;50.664;10.098;2022-12-13T06:01:58;5.90;;;2.67;;
43807;SDS011;29438;50.664;10.098;2022-12-13T06:04:24;10.93;;;2.85;;
43807;SDS011;29438;50.664;10.098;2022-12-13T06:06:50;5.57;;;2.50;;
43807;SDS011;29438;50.664;10.098;2022-12-13T06:09:16;4.10;;;2.22;;
43807;SDS011;29438;50.664;10.098;2022-12-13T06:11:41;5.05;;;2.75;;
43807;SDS011;29438;50.664;10.098;2022-12-13T06:14:07;9.90;;;3.50;;
43807;SDS011;29438;50.664;10.098;2022-12-13T06:16:33;4.10;;;2.15;;
43807;SDS011;29438;50.664;10.098;2022-12-13T06:18:58;10.23;;;3.28;;
43807;SDS011;29438;50.664;10.098;2022-12-13T06:21:24;7.78;;;2.42;;
43807;SDS011;29438;50.664;10.098;2022-12-13T06:23:49;5.03;;;3.45;;
43807;SDS011;29438;50.664;10.098;2022-12-13T06:26:15;9.13;;;2.92;;
43807;SDS011;29438;50.664;10.098;2022-12-13T06:28:40;7.13;;;2.50;;
43807;SDS011;29438;50.664;10.098;2022-12-13T06:31:06;3.33;;;1.92;;
43807;SDS011;29438;50.664;10.098;2022-12-13T06:33:31;5.95;;;3.10;;
43807;SDS011;29438;50.664;10.098;2022-12-13T06:36:00;4.82;;;2.55;;
43807;SDS011;29438;50.664;10.098;2022-12-13T06:38:27;3.15;;;2.15;;
43807;SDS011;29438;50.664;10.098;2022-12-13T06:40:53;4.22;;;2.35;;
43807;SDS011;29438;50.664;10.098;2022-12-13T06:43:19;3.60;;;1.92;;
43807;SDS011;29438;50.664;10.098;2022-12-13T06:45:45;5.90;;;1.65;;
43807;SDS011;29438;50.664;10.098;2022-12-13T06:48:11;3.85;;;1.75;;
43807;SDS011;29438;50.664;10.098;2022-12-13T06:50:37;7.60;;;2.70;;
43807;SDS011;29438;50.664;10.098;2022-12-13T06:53:02;3.25;;;1.70;;
43807;SDS011;29438;50.664;10.098;2022-12-13T06:55:28;6.13;;;1.85;;
43807;SDS011;29438;50.664;10.098;2022-12-13T06:57:55;2.75;;;1.67;;
43807;SDS011;29438;50.664;10.098;2022-12-13T07:00:23;7.47;;;2.05;;
43807;SDS011;29438;50.664;10.098;2022-12-13T07:02:52;3.85;;;1.90;;
43807;SDS011;29438;50.664;10.098;2022-12-13T07:05:18;8.32;;;2.80;;
43807;SDS011;29438;50.664;10.098;2022-12-13T07:07:44;9.65;;;3.13;;
43807;SDS011;29438;50.664;10.098;2022-12-13T07:10:10;7.78;;;2.55;;
43807;SDS011;29438;50.664;10.098;2022-12-13T07:12:35;6.75;;;2.38;;
43807;SDS011;29438;50.664;10.098;2022-12-13T07:15:01;4.10;;;1.83;;
43807;SDS011;29438;50.664;10.098;2022-12-13T07:17:27;6.75;;;2.25;;
43807;SDS011;29438;50.664;10.098;2022-12-13T07:19:53;5.20;;;1.70;;
43807;SDS011;29438;50.664;10.098;2022-12-13T07:22:19;7.38;;;3.20;;
43807;SDS011;29438;50.664;10.098;2022-12-13T07:24:45;2.83;;;2.10;;
43807;SDS011;29438;50.664;10.098;2022-12-13T07:27:10;5.72;;;2.17;;
43807;SDS011;29438;50.664;10.098;2022-12-13T07:29:36;8.20;;;2.83;;
43807;SDS011;29438;50.664;10.098;2022-12-13T07:32:01;5.65;;;2.67;;
43807;SDS011;29438;50.664;10.098;2022-12-13T07:34:27;3.60;;;1.48;;
43807;SDS011;29438;50.664;10.098;2022-12-13T07:36:54;4.45;;;2.05;;
43807;SDS011;29438;50.664;10.098;2022-12-13T07:39:22;3.83;;;2.33;;
43807;SDS011;29438;50.664;10.098;2022-12-13T07:41:51;5.13;;;3.38;;
43807;SDS011;29438;50.664;10.098;2022-12-13T07:44:18;7.40;;;4.10;;
43807;SDS011;29438;50.664;10.098;2022-12-13T07:46:44;6.53;;;4.10;;
43807;SDS011;29438;50.664;10.098;2022-12-13T07:49:10;6.40;;;2.58;;
43807;SDS011;29438;50.664;10.098;2022-12-13T07:51:36;9.50;;;4.57;;
43807;SDS011;29438;50.664;10.098;2022-12-13T07:54:02;5.00;;;2.28;;
43807;SDS011;29438;50.664;10.098;2022-12-13T07:56:28;7.53;;;2.58;;
43807;SDS011;29438;50.664;10.098;2022-12-13T07:58:54;14.98;;;3.20;;
43807;SDS011;29438;50.664;10.098;2022-12-13T08:01:19;9.32;;;3.10;;
43807;SDS011;29438;50.664;10.098;2022-12-13T08:03:46;8.30;;;3.38;;
43807;SDS011;29438;50.664;10.098;2022-12-13T08:06:12;14.68;;;5.60;;
43807;SDS011;29438;50.664;10.098;2022-12-13T08:08:38;27.77;;;9.05;;
43807;SDS011;29438;50.664;10.098;2022-12-13T08:11:07;28.25;;;11.38;;
43807;SDS011;29438;50.664;10.098;2022-12-13T08:13:34;30.38;;;12.27;;
43807;SDS011;29438;50.664;10.098;2022-12-13T08:16:01;28.08;;;10.90;;
43807;SDS011;29438;50.664;10.098;2022-12-13T08:18:30;38.42;;;12.57;;
43807;SDS011;29438;50.664;10.098;2022-12-13T08:20:59;55.90;;;17.17;;
43807;SDS011;29438;50.664;10.098;2022-12-13T08:23:25;27.55;;;9.80;;
43807;SDS011;29438;50.664;10.098;2022-12-13T08:25:52;36.50;;;10.60;;
43807;SDS011;29438;50.664;10.098;2022-12-13T08:28:18;30.75;;;10.63;;
43807;SDS011;29438;50.664;10.098;2022-12-13T08:30:44;28.60;;;10.30;;
43807;SDS011;29438;50.664;10.098;2022-12-13T08:33:10;28.23;;;10.88;;
43807;SDS011;29438;50.664;10.098;2022-12-13T08:35:36;39.95;;;11.93;;
43807;SDS011;29438;50.664;10.098;2022-12-13T08:38:01;31.67;;;11.02;;
43807;SDS011;29438;50.664;10.098;2022-12-13T08:40:27;26.13;;;10.55;;
43807;SDS011;29438;50.664;10.098;2022-12-13T08:42:55;31.33;;;10.70;;
43807;SDS011;29438;50.664;10.098;2022-12-13T08:45:21;20.17;;;7.68;;
43807;SDS011;29438;50.664;10.098;2022-12-13T08:47:51;21.95;;;7.88;;
43807;SDS011;29438;50.664;10.098;2022-12-13T08:50:16;21.05;;;8.07;;
43807;SDS011;29438;50.664;10.098;2022-12-13T08:52:42;25.60;;;9.23;;
43807;SDS011;29438;50.664;10.098;2022-12-13T08:55:09;23.52;;;7.60;;
43807;SDS011;29438;50.664;10.098;2022-12-13T08:57:39;21.83;;;8.23;;
43807;SDS011;29438;50.664;10.098;2022-12-13T09:00:05;21.10;;;8.20;;
43807;SDS011;29438;50.664;10.098;2022-12-13T09:02:33;24.77;;;8.75;;
43807;SDS011;29438;50.664;10.098;2022-12-13T09:04:58;25.48;;;8.60;;
43807;SDS011;29438;50.664;10.098;2022-12-13T09:07:24;26.23;;;9.07;;
43807;SDS011;29438;50.664;10.098;2022-12-13T09:09:49;28.63;;;11.32;;
43807;SDS011;29438;50.664;10.098;2022-12-13T09:12:15;29.42;;;11.50;;
43807;SDS011;29438;50.664;10.098;2022-12-13T09:14:41;26.15;;;9.32;;
43807;SDS011;29438;50.664;10.098;2022-12-13T09:17:06;29.38;;;10.80;;
43807;SDS011;29438;50.664;10.098;2022-12-13T09:19:32;28.33;;;9.95;;
43807;SDS011;29438;50.664;10.098;2022-12-13T09:21:57;29.27;;;10.30;;
43807;SDS011;29438;50.664;10.098;2022-12-13T09:24:23;25.85;;;10.18;;
43807;SDS011;29438;50.664;10.098;2022-12-13T09:26:49;24.35;;;9.70;;
43807;SDS011;29438;50.664;10.098;2022-12-13T09:29:14;29.40;;;11.55;;
43807;SDS011;29438;50.664;10.098;2022-12-13T09:31:40;16.83;;;7.05;;
43807;SDS011;29438;50.664;10.098;2022-12-13T09:34:06;17.50;;;6.40;;
43807;SDS011;29438;50.664;10.098;2022-12-13T09:36:33;14.82;;;6.10;;
43807;SDS011;29438;50.664;10.098;2022-12-13T09:38:58;15.65;;;6.10;;
43807;SDS011;29438;50.664;10.098;2022-12-13T09:41:26;21.85;;;7.95;;
43807;SDS011;29438;50.664;10.098;2022-12-13T09:43:56;18.63;;;7.60;;
43807;SDS011;29438;50.664;10.098;2022-12-13T09:46:31;21.65;;;7.95;;
43807;SDS011;29438;50.664;10.098;2022-12-13T09:49:01;15.93;;;5.63;;
43807;SDS011;29438;50.664;10.098;2022-12-13T09:51:31;26.50;;;9.50;;
43807;SDS011;29438;50.664;10.098;2022-12-13T09:53:57;22.80;;;9.30;;
43807;SDS011;29438;50.664;10.098;2022-12-13T09:56:24;27.42;;;10.55;;
43807;SDS011;29438;50.664;10.098;2022-12-13T09:58:51;26.90;;;11.00;;
43807;SDS011;29438;50.664;10.098;2022-12-13T10:01:19;24.60;;;9.93;;
43807;SDS011;29438;50.664;10.098;2022-12-13T10:03:58;22.42;;;9.70;;
43807;SDS011;29438;50.664;10.098;2022-12-13T10:06:51;24.98;;;9.43;;
43807;SDS011;29438;50.664;10.098;2022-12-13T10:09:17;23.85;;;8.68;;
43807;SDS011;29438;50.664;10.098;2022-12-13T10:11:50;26.30;;;10.25;;
43807;SDS011;29438;50.664;10.098;2022-12-13T10:14:22;28.73;;;10.95;;
43807;SDS011;29438;50.664;10.098;2022-12-13T10:16:55;23.40;;;8.80;;
43807;SDS011;29438;50.664;10.098;2022-12-13T10:19:31;26.00;;;9.73;;
43807;SDS011;29438;50.664;10.098;2022-12-13T10:22:00;23.83;;;8.80;;
43807;SDS011;29438;50.664;10.098;2022-12-13T10:24:27;20.45;;;8.23;;
43807;SDS011;29438;50.664;10.098;2022-12-13T10:26:55;21.25;;;8.40;;
43807;SDS011;29438;50.664;10.098;2022-12-13T10:29:24;18.95;;;7.63;;
43807;SDS011;29438;50.664;10.098;2022-12-13T10:31:50;20.17;;;6.72;;
43807;SDS011;29438;50.664;10.098;2022-12-13T10:34:21;20.02;;;6.32;;
43807;SDS011;29438;50.664;10.098;2022-12-13T10:36:47;18.23;;;6.07;;
43807;SDS011;29438;50.664;10.098;2022-12-13T10:39:15;16.17;;;6.28;;
43807;SDS011;29438;50.664;10.098;2022-12-13T10:42:14;17.75;;;6.18;;
43807;SDS011;29438;50.664;10.098;2022-12-13T10:44:41;15.43;;;5.90;;
43807;SDS011;29438;50.664;10.098;2022-12-13T10:49:49;17.70;;;6.68;;
43807;SDS011;29438;50.664;10.098;2022-12-13T10:52:33;20.33;;;6.85;;
43807;SDS011;29438;50.664;10.098;2022-12-13T10:55:04;17.60;;;7.15;;
43807;SDS011;29438;50.664;10.098;2022-12-13T10:57:52;17.35;;;7.28;;
43807;SDS011;29438;50.664;10.098;2022-12-13T11:00:29;19.15;;;6.45;;
43807;SDS011;29438;50.664;10.098;2022-12-13T11:02:57;16.75;;;6.75;;
43807;SDS011;29438;50.664;10.098;2022-12-13T11:07:53;16.60;;;5.63;;
43807;SDS011;29438;50.664;10.098;2022-12-13T11:10:23;15.80;;;5.97;;
43807;SDS011;29438;50.664;10.098;2022-12-13T11:12:55;16.25;;;6.25;;
43807;SDS011;29438;50.664;10.098;2022-12-13T11:15:25;18.90;;;6.45;;
43807;SDS011;29438;50.664;10.098;2022-12-13T11:17:54;15.88;;;5.85;;
43807;SDS011;29438;50.664;10.098;2022-12-13T11:21:10;19.02;;;6.82;;
43807;SDS011;29438;50.664;10.098;2022-12-13T11:23:38;13.32;;;5.43;;
43807;SDS011;29438;50.664;10.098;2022-12-13T11:26:09;17.25;;;5.63;;
43807;SDS011;29438;50.664;10.098;2022-12-13T11:34:15;11.68;;;4.82;;
43807;SDS011;29438;50.664;10.098;2022-12-13T11:36:57;16.75;;;6.22;;
43807;SDS011;29438;50.664;10.098;2022-12-13T11:39:33;15.68;;;6.18;;
43807;SDS011;29438;50.664;10.098;2022-12-13T11:42:17;13.73;;;6.32;;
43807;SDS011;29438;50.664;10.098;2022-12-13T11:50:16;14.63;;;4.68;;
43807;SDS011;29438;50.664;10.098;2022-12-13T11:52:48;11.05;;;4.63;;
43807;SDS011;29438;50.664;10.098;2022-12-13T11:55:34;11.07;;;3.95;;
43807;SDS011;29438;50.664;10.098;2022-12-13T11:58:14;11.25;;;4.10;;
43807;SDS011;29438;50.664;10.098;2022-12-13T12:00:46;13.55;;;4.95;;
43807;SDS011;29438;50.664;10.098;2022-12-13T12:03:46;16.33;;;4.45;;
43807;SDS011;29438;50.664;10.098;2022-12-13T12:06:20;13.13;;;4.88;;
43807;SDS011;29438;50.664;10.098;2022-12-13T12:09:06;13.82;;;4.47;;
43807;SDS011;29438;50.664;10.098;2022-12-13T12:11:43;14.18;;;5.18;;
43807;SDS011;29438;50.664;10.098;2022-12-13T12:14:19;11.65;;;4.10;;
43807;SDS011;29438;50.664;10.098;2022-12-13T12:17:05;10.68;;;4.38;;
43807;SDS011;29438;50.664;10.098;2022-12-13T12:19:37;15.38;;;5.32;;
43807;SDS011;29438;50.664;10.098;2022-12-13T12:22:16;18.52;;;7.30;;
43807;SDS011;29438;50.664;10.098;2022-12-13T12:24:55;32.58;;;11.88;;
43807;SDS011;29438;50.664;10.098;2022-12-13T12:27:39;56.22;;;22.40;;
43807;SDS011;29438;50.664;10.098;2022-12-13T12:30:31;28.50;;;11.48;;
43807;SDS011;29438;50.664;10.098;2022-12-13T12:38:54;25.10;;;9.80;;
43807;SDS011;29438;50.664;10.098;2022-12-13T12:46:43;22.20;;;9.07;;
43807;SDS011;29438;50.664;10.098;2022-12-13T12:52:35;14.10;;;5.35;;
43807;SDS011;29438;50.664;10.098;2022-12-13T12:57:56;11.75;;;4.57;;
43807;SDS011;29438;50.664;10.098;2022-12-13T13:03:35;12.57;;;4.90;;
43807;SDS011;29438;50.664;10.098;2022-12-13T13:06:05;14.02;;;5.13;;
43807;SDS011;29438;50.664;10.098;2022-12-13T13:08:50;8.50;;;3.33;;
43807;SDS011;29438;50.664;10.098;2022-12-13T13:11:30;8.90;;;3.40;;
43807;SDS011;29438;50.664;10.098;2022-12-13T13:14:00;14.38;;;4.10;;
43807;SDS011;29438;50.664;10.098;2022-12-13T13:21:56;10.85;;;4.30;;
43807;SDS011;29438;50.664;10.098;2022-12-13T13:24:29;10.13;;;4.38;;
43807;SDS011;29438;50.664;10.098;2022-12-13T13:26:57;9.18;;;3.42;;
43807;SDS011;29438;50.664;10.098;2022-12-13T13:29:43;11.15;;;4.30;;
43807;SDS011;29438;50.664;10.098;2022-12-13T13:34:46;12.70;;;3.90;;
43807;SDS011;29438;50.664;10.098;2022-12-13T13:42:17;6.72;;;2.47;;
43807;SDS011;29438;50.664;10.098;2022-12-13T13:47:13;6.97;;;2.70;;
43807;SDS011;29438;50.664;10.098;2022-12-13T13:55:08;7.28;;;2.95;;
43807;SDS011;29438;50.664;10.098;2022-12-13T14:09:10;10.02;;;4.07;;
43807;SDS011;29438;50.664;10.098;2022-12-13T14:12:06;12.50;;;4.47;;
43807;SDS011;29438;50.664;10.098;2022-12-13T14:20:55;29.30;;;10.02;;
43807;SDS011;29438;50.664;10.098;2022-12-13T14:28:49;16.70;;;6.68;;
43807;SDS011;29438;50.664;10.098;2022-12-13T14:31:28;10.90;;;4.97;;
43807;SDS011;29438;50.664;10.098;2022-12-13T14:34:06;15.07;;;5.95;;
43807;SDS011;29438;50.664;10.098;2022-12-13T14:36:39;10.27;;;5.03;;
43807;SDS011;29438;50.664;10.098;2022-12-13T14:39:15;10.13;;;3.42;;
43807;SDS011;29438;50.664;10.098;2022-12-13T14:41:45;9.60;;;3.83;;
43807;SDS011;29438;50.664;10.098;2022-12-13T14:44:14;6.85;;;2.75;;
43807;SDS011;29438;50.664;10.098;2022-12-13T14:46:52;5.68;;;2.50;;
43807;SDS011;29438;50.664;10.098;2022-12-13T14:49:20;8.40;;;3.33;;
43807;SDS011;29438;50.664;10.098;2022-12-13T14:51:47;7.85;;;2.70;;
43807;SDS011;29438;50.664;10.098;2022-12-13T14:54:21;8.73;;;2.53;;
43807;SDS011;29438;50.664;10.098;2022-12-13T14:56:53;6.15;;;2.92;;
43807;SDS011;29438;50.664;10.098;2022-12-13T14:59:20;7.38;;;3.40;;
43807;SDS011;29438;50.664;10.098;2022-12-13T15:01:52;7.53;;;2.65;;
43807;SDS011;29438;50.664;10.098;2022-12-13T15:04:24;7.55;;;2.97;;
43807;SDS011;29438;50.664;10.098;2022-12-13T15:07:40;5.68;;;2.10;;
43807;SDS011;29438;50.664;10.098;2022-12-13T15:09:54;8.02;;;2.72;;
43807;SDS011;29438;50.664;10.098;2022-12-13T15:12:22;11.48;;;4.60;;
43807;SDS011;29438;50.664;10.098;2022-12-13T15:14:49;10.43;;;4.40;;
43807;SDS011;29438;50.664;10.098;2022-12-13T15:19:58;15.82;;;4.35;;
43807;SDS011;29438;50.664;10.098;2022-12-13T15:22:24;16.75;;;6.82;;
43807;SDS011;29438;50.664;10.098;2022-12-13T15:24:50;24.63;;;8.13;;
43807;SDS011;29438;50.664;10.098;2022-12-13T15:27:17;20.10;;;7.18;;
43807;SDS011;29438;50.664;10.098;2022-12-13T15:29:45;20.27;;;6.30;;
43807;SDS011;29438;50.664;10.098;2022-12-13T15:32:17;19.55;;;5.75;;
43807;SDS011;29438;50.664;10.098;2022-12-13T15:34:47;15.30;;;6.45;;
43807;SDS011;29438;50.664;10.098;2022-12-13T15:39:42;15.05;;;6.00;;
43807;SDS011;29438;50.664;10.098;2022-12-13T15:42:21;26.38;;;7.88;;
43807;SDS011;29438;50.664;10.098;2022-12-13T15:44:59;14.73;;;4.30;;
43807;SDS011;29438;50.664;10.098;2022-12-13T15:47:26;28.23;;;10.15;;
43807;SDS011;29438;50.664;10.098;2022-12-13T15:49:56;21.90;;;7.97;;
43807;SDS011;29438;50.664;10.098;2022-12-13T15:52:24;16.02;;;4.90;;
43807;SDS011;29438;50.664;10.098;2022-12-13T15:54:58;11.63;;;4.35;;
43807;SDS011;29438;50.664;10.098;2022-12-13T15:57:28;6.72;;;3.17;;
43807;SDS011;29438;50.664;10.098;2022-12-13T16:05:17;4.60;;;2.70;;
43807;SDS011;29438;50.664;10.098;2022-12-13T16:08:24;11.57;;;2.95;;
43807;SDS011;29438;50.664;10.098;2022-12-13T16:10:53;10.48;;;4.18;;
43807;SDS011;29438;50.664;10.098;2022-12-13T16:13:21;12.57;;;5.22;;
43807;SDS011;29438;50.664;10.098;2022-12-13T16:15:55;27.65;;;11.05;;
43807;SDS011;29438;50.664;10.098;2022-12-13T16:18:24;13.60;;;5.07;;
43807;SDS011;29438;50.664;10.098;2022-12-13T16:20:54;18.42;;;8.68;;
43807;SDS011;29438;50.664;10.098;2022-12-13T16:23:21;12.50;;;7.03;;
43807;SDS011;29438;50.664;10.098;2022-12-13T16:25:46;11.63;;;6.05;;
43807;SDS011;29438;50.664;10.098;2022-12-13T16:28:12;17.27;;;6.38;;
43807;SDS011;29438;50.664;10.098;2022-12-13T16:33:18;20.52;;;7.20;;
43807;SDS011;29438;50.664;10.098;2022-12-13T16:35:44;15.43;;;7.05;;
43807;SDS011;29438;50.664;10.098;2022-12-13T16:38:10;26.30;;;9.98;;
43807;SDS011;29438;50.664;10.098;2022-12-13T16:40:37;25.65;;;8.80;;
43807;SDS011;29438;50.664;10.098;2022-12-13T16:43:03;18.60;;;7.45;;
43807;SDS011;29438;50.664;10.098;2022-12-13T16:45:37;20.42;;;7.47;;